createdAt,value
2022-09-13T00:01:58.353Z,6.94
2022-09-13T00:04:24.940Z,6.88
2022-09-13T00:06:51.445Z,6.86
2022-09-13T00:09:18.072Z,6.90
2022-09-13T00:11:44.675Z,6.84
2022-09-13T00:14:11.148Z,6.77
2022-09-13T00:16:37.770Z,6.71
2022-09-13T00:19:04.281Z,6.65
2022-09-13T00:21:30.982Z,6.58
2022-09-13T00:23:57.456Z,6.57
2022-09-13T00:26:28.359Z,6.56
2022-09-13T00:28:58.308Z,6.62
2022-09-13T00:31:27.607Z,6.69
2022-09-13T00:33:54.715Z,6.70
2022-09-13T00:36:21.241Z,6.71
2022-09-13T00:38:47.715Z,6.66
2022-09-13T00:41:16.811Z,6.65
2022-09-13T00:43:45.186Z,6.63
2022-09-13T00:46:33.375Z,6.62
2022-09-13T00:49:30.198Z,6.52
2022-09-13T00:52:00.218Z,6.52
2022-09-13T00:54:32.073Z,6.46
2022-09-13T00:57:02.025Z,6.46
2022-09-13T00:59:34.535Z,6.52
2022-09-13T01:02:02.137Z,6.51
2022-09-13T01:04:32.778Z,6.49
2022-09-13T01:07:02.611Z,6.42
2022-09-13T01:09:31.543Z,6.41
2022-09-13T01:12:10.161Z,6.39
2022-09-13T01:14:37.410Z,6.37
2022-09-13T01:17:04.794Z,6.34
2022-09-13T01:19:31.864Z,6.26
2022-09-13T01:22:17.098Z,6.21
2022-09-13T01:24:49.597Z,6.24
2022-09-13T01:27:42.166Z,6.26
2022-09-13T01:30:37.810Z,6.23
2022-09-13T01:33:22.718Z,6.19
2022-09-13T01:36:11.712Z,6.17
2022-09-13T01:39:04.489Z,6.16
2022-09-13T01:42:00.290Z,6.18
2022-09-13T01:44:47.547Z,6.25
2022-09-13T01:47:42.402Z,6.32
2022-09-13T01:50:36.812Z,6.37
2022-09-13T01:53:14.300Z,6.43
2022-09-13T01:55:40.721Z,6.44
2022-09-13T01:58:28.170Z,6.47
2022-09-13T02:01:09.805Z,6.47
2022-09-13T02:03:44.711Z,6.43
2022-09-13T02:06:24.572Z,6.46
2022-09-13T02:08:57.784Z,6.50
2022-09-13T02:11:24.679Z,6.53
2022-09-13T02:14:30.867Z,6.54
2022-09-13T02:17:07.353Z,6.56
2022-09-13T02:19:39.993Z,6.62
2022-09-13T02:22:09.570Z,6.64
2022-09-13T02:24:40.932Z,6.61
2022-09-13T02:27:12.113Z,6.60
2022-09-13T02:29:42.391Z,6.63
2022-09-13T02:32:34.042Z,6.64
2022-09-13T02:35:12.673Z,6.66
2022-09-13T02:37:42.680Z,6.70
2022-09-13T02:40:15.457Z,6.63
2022-09-13T02:43:06.452Z,6.53
2022-09-13T02:45:52.187Z,6.49
2022-09-13T02:48:31.521Z,6.50
2022-09-13T02:51:18.275Z,6.53
2022-09-13T02:53:59.393Z,6.54
2022-09-13T02:56:48.081Z,6.58
2022-09-13T02:59:19.313Z,6.59
2022-09-13T03:01:55.112Z,6.64
2022-09-13T03:04:21.631Z,6.62
2022-09-13T03:06:49.697Z,6.55
2022-09-13T03:09:17.204Z,6.56
2022-09-13T03:12:23.326Z,6.56
2022-09-13T03:15:34.788Z,6.53
2022-09-13T03:18:23.570Z,6.57
2022-09-13T03:21:16.105Z,6.58
2022-09-13T03:23:45.659Z,6.58
2022-09-13T03:26:53.654Z,6.61
2022-09-13T03:29:48.812Z,6.61
2022-09-13T03:32:39.871Z,6.59
2022-09-13T03:35:27.596Z,6.63
2022-09-13T03:38:03.907Z,6.59
2022-09-13T03:40:33.328Z,6.54
2022-09-13T03:43:27.113Z,6.46
2022-09-13T03:45:59.019Z,6.44
2022-09-13T03:48:27.521Z,6.43
2022-09-13T03:50:55.639Z,6.42
2022-09-13T03:53:27.360Z,6.41
2022-09-13T03:55:54.797Z,6.40
2022-09-13T03:58:22.062Z,6.42
2022-09-13T04:00:48.840Z,6.43
2022-09-13T04:03:15.717Z,6.46
2022-09-13T04:05:42.265Z,6.44
2022-09-13T04:08:08.780Z,6.40
2022-09-13T04:10:36.336Z,6.43
2022-09-13T04:13:03.116Z,6.41
2022-09-13T04:15:31.323Z,6.40
2022-09-13T04:17:57.854Z,6.36
2022-09-13T04:20:25.206Z,6.33
2022-09-13T04:22:56.148Z,6.31
2022-09-13T04:25:23.346Z,6.29
2022-09-13T04:27:55.487Z,6.28
2022-09-13T04:30:23.452Z,6.33
2022-09-13T04:32:50.282Z,6.30
2022-09-13T04:35:18.086Z,6.30
2022-09-13T04:37:44.594Z,6.28
2022-09-13T04:40:11.665Z,6.34
2022-09-13T04:42:38.218Z,6.39
2022-09-13T04:45:05.500Z,6.41
2022-09-13T04:47:32.113Z,6.40
2022-09-13T04:49:58.599Z,6.45
2022-09-13T04:52:25.080Z,6.49
2022-09-13T04:54:51.887Z,6.48
2022-09-13T04:57:18.380Z,6.51
2022-09-13T04:59:44.842Z,6.55
2022-09-13T05:02:11.413Z,6.56
2022-09-13T05:04:38.440Z,6.47
2022-09-13T05:07:05.143Z,6.38
2022-09-13T05:09:32.306Z,6.32
2022-09-13T05:11:58.791Z,6.28
2022-09-13T05:14:25.248Z,6.27
2022-09-13T05:16:51.773Z,6.33
2022-09-13T05:19:18.283Z,6.36
2022-09-13T05:21:44.821Z,6.43
2022-09-13T05:24:11.934Z,6.40
2022-09-13T05:26:38.623Z,6.40
2022-09-13T05:29:05.291Z,6.42
2022-09-13T05:31:35.543Z,6.42
2022-09-13T05:34:06.646Z,6.39
2022-09-13T05:36:33.845Z,6.45
2022-09-13T05:41:47.591Z,6.33
2022-09-13T05:44:14.460Z,6.39
2022-09-13T05:46:42.393Z,6.50
2022-09-13T05:49:08.920Z,6.60
2022-09-13T05:51:36.568Z,6.65
2022-09-13T05:54:03.073Z,6.75
2022-09-13T05:56:30.231Z,6.79
2022-09-13T05:58:56.994Z,6.82
2022-09-13T06:01:26.457Z,6.87
2022-09-13T06:03:55.350Z,6.95
2022-09-13T06:06:23.333Z,7.01
2022-09-13T06:08:54.752Z,7.07
2022-09-13T06:11:21.842Z,7.10
2022-09-13T06:13:48.896Z,7.15
2022-09-13T06:16:16.755Z,7.17
2022-09-13T06:18:43.967Z,7.20
2022-09-13T06:21:18.090Z,7.28
2022-09-13T06:23:51.094Z,7.34
2022-09-13T06:26:19.567Z,7.42
2022-09-13T06:28:54.254Z,7.48
2022-09-13T06:31:22.852Z,7.54
2022-09-13T06:33:49.504Z,7.60
2022-09-13T06:36:18.291Z,7.68
2022-09-13T06:38:46.572Z,7.74
2022-09-13T06:41:16.071Z,7.82
2022-09-13T06:43:42.532Z,7.89
2022-09-13T06:46:21.520Z,7.95
2022-09-13T06:48:50.976Z,8.01
2022-09-13T06:51:19.722Z,8.09
2022-09-13T06:53:48.510Z,8.13
2022-09-13T06:56:21.186Z,8.15
2022-09-13T06:58:49.599Z,8.23
2022-09-13T07:01:20.035Z,8.33
2022-09-13T07:03:52.092Z,8.45
2022-09-13T07:06:22.649Z,8.56
2022-09-13T07:08:51.289Z,8.65
2022-09-13T07:11:19.541Z,8.75
2022-09-13T07:13:50.444Z,8.86
2022-09-13T07:16:18.051Z,8.97
2022-09-13T07:18:44.615Z,9.06
2022-09-13T07:21:11.634Z,9.15
2022-09-13T07:23:39.943Z,9.19
2022-09-13T07:26:07.625Z,9.31
2022-09-13T07:28:45.381Z,9.41
2022-09-13T07:31:16.901Z,9.50
2022-09-13T07:33:44.679Z,9.63
2022-09-13T07:36:12.540Z,9.76
2022-09-13T07:38:45.323Z,9.89
2022-09-13T07:41:15.268Z,10.07
2022-09-13T07:43:42.109Z,10.18
2022-09-13T07:46:11.361Z,10.29
2022-09-13T07:48:39.264Z,10.39
2022-09-13T07:51:09.434Z,10.56
2022-09-13T07:53:37.486Z,10.68
2022-09-13T07:56:06.553Z,10.83
2022-09-13T07:58:34.893Z,10.89
2022-09-13T08:01:05.626Z,10.94
2022-09-13T08:03:33.762Z,10.95
2022-09-13T08:06:01.509Z,10.99
2022-09-13T08:08:29.124Z,11.11
2022-09-13T08:10:55.816Z,11.30
2022-09-13T08:13:22.278Z,11.49
2022-09-13T08:15:49.957Z,11.60
2022-09-13T08:18:19.926Z,11.83
2022-09-13T08:20:46.404Z,12.07
2022-09-13T08:23:13.668Z,12.26
2022-09-13T08:25:40.913Z,12.40
2022-09-13T08:28:10.820Z,12.57
2022-09-13T08:30:38.087Z,12.88
2022-09-13T08:33:05.040Z,12.96
2022-09-13T08:35:32.448Z,13.09
2022-09-13T08:38:00.025Z,13.19
2022-09-13T08:40:30.700Z,13.30
2022-09-13T08:43:06.040Z,13.48
2022-09-13T08:45:32.750Z,13.56
2022-09-13T08:48:04.594Z,13.65
2022-09-13T08:50:34.177Z,13.78
2022-09-13T08:53:17.674Z,13.86
2022-09-13T08:56:17.807Z,14.06
2022-09-13T08:59:00.454Z,14.17
2022-09-13T09:01:38.424Z,14.22
2022-09-13T09:04:26.167Z,14.25
2022-09-13T09:07:05.211Z,14.35
2022-09-13T09:09:34.580Z,14.43
2022-09-13T09:19:35.367Z,14.66
2022-09-13T09:22:09.550Z,14.68
2022-09-13T09:24:38.820Z,14.76
2022-09-13T09:35:27.441Z,15.01
2022-09-13T09:38:33.008Z,15.09
2022-09-13T09:41:05.650Z,15.22
2022-09-13T09:44:14.141Z,15.39
2022-09-13T09:46:43.061Z,15.45
2022-09-13T09:49:39.921Z,15.44
2022-09-13T09:52:11.297Z,15.50
2022-09-13T09:54:39.160Z,15.53
2022-09-13T09:57:08.149Z,15.57
2022-09-13T09:59:36.166Z,15.60
2022-09-13T10:02:18.471Z,15.64
2022-09-13T10:04:56.512Z,15.73
2022-09-13T10:07:32.843Z,15.80
2022-09-13T10:10:20.509Z,15.88
2022-09-13T10:12:52.345Z,16.01
2022-09-13T10:15:22.352Z,16.06
2022-09-13T10:18:42.918Z,16.11
2022-09-13T10:21:06.332Z,16.19
2022-09-13T10:23:35.258Z,16.27
2022-09-13T10:26:02.751Z,16.36
2022-09-13T10:28:32.447Z,16.51
2022-09-13T10:31:05.064Z,16.57
2022-09-13T10:33:38.731Z,16.59
2022-09-13T10:36:15.520Z,16.55
2022-09-13T10:38:57.249Z,16.58
2022-09-13T10:41:27.197Z,16.61
2022-09-13T10:43:58.785Z,16.70
2022-09-13T10:46:27.830Z,16.75
2022-09-13T10:48:57.259Z,16.77
2022-09-13T10:51:34.373Z,16.78
2022-09-13T10:54:23.298Z,16.76
2022-09-13T10:56:51.150Z,16.79
2022-09-13T10:59:22.960Z,16.84
2022-09-13T11:02:14.079Z,16.89
2022-09-13T11:05:07.666Z,16.92
2022-09-13T11:07:47.357Z,16.97
2022-09-13T11:10:16.537Z,17.01
2022-09-13T11:13:06.253Z,17.06
2022-09-13T11:15:51.612Z,17.14
2022-09-13T11:18:36.898Z,17.18
2022-09-13T11:21:09.455Z,17.25
2022-09-13T11:24:04.182Z,17.25
2022-09-13T11:26:38.857Z,17.25
2022-09-13T11:29:21.079Z,17.24
2022-09-13T11:31:56.891Z,17.25
2022-09-13T11:34:36.432Z,17.28
2022-09-13T11:37:16.503Z,17.34
2022-09-13T11:39:57.918Z,17.38
2022-09-13T11:42:55.820Z,17.44
2022-09-13T11:45:24.726Z,17.52
2022-09-13T11:48:21.616Z,17.53
2022-09-13T11:51:19.917Z,17.54
2022-09-13T11:53:59.875Z,17.51
2022-09-13T11:56:40.323Z,17.54
2022-09-13T11:59:22.023Z,17.53
2022-09-13T12:01:56.022Z,17.52
2022-09-13T12:04:33.075Z,17.52
2022-09-13T12:07:05.161Z,17.50
2022-09-13T12:09:38.434Z,17.58
2022-09-13T12:12:11.780Z,17.66
2022-09-13T12:15:04.981Z,17.67
2022-09-13T12:17:42.797Z,17.69
2022-09-13T12:20:32.905Z,17.70
2022-09-13T12:23:03.475Z,17.73
2022-09-13T12:25:45.425Z,17.74
2022-09-13T12:28:19.842Z,17.77
2022-09-13T12:30:54.348Z,17.80
2022-09-13T12:33:21.225Z,17.78
2022-09-13T12:36:17.052Z,17.76
2022-09-13T12:39:09.068Z,17.72
2022-09-13T12:41:42.918Z,17.75
2022-09-13T12:44:46.618Z,17.74
2022-09-13T12:47:20.568Z,17.78
2022-09-13T12:53:18.470Z,17.75
2022-09-13T12:56:17.189Z,17.72
2022-09-13T12:59:20.713Z,17.77
2022-09-13T13:01:50.318Z,17.86
2022-09-13T13:04:30.631Z,17.96
2022-09-13T13:06:58.278Z,18.10
2022-09-13T13:09:48.405Z,18.19
2022-09-13T13:12:36.715Z,18.28
2022-09-13T13:15:28.056Z,18.33
2022-09-13T13:17:57.927Z,18.40
2022-09-13T13:20:48.231Z,18.36
2022-09-13T13:23:18.872Z,18.32
2022-09-13T13:26:08.004Z,18.38
2022-09-13T13:28:47.693Z,18.50
2022-09-13T13:31:35.559Z,18.61
2022-09-13T13:34:13.905Z,18.66
2022-09-13T13:36:40.346Z,18.70
2022-09-13T13:39:13.650Z,18.72
2022-09-13T13:41:47.142Z,18.75
2022-09-13T13:44:19.721Z,18.84
2022-09-13T13:46:51.081Z,18.86
2022-09-13T13:49:32.604Z,18.79
2022-09-13T13:52:15.797Z,18.70
2022-09-13T13:54:42.251Z,18.71
2022-09-13T13:57:20.890Z,18.72
2022-09-13T13:59:50.338Z,18.73
2022-09-13T14:02:23.142Z,18.66
2022-09-13T14:05:04.960Z,18.58
2022-09-13T14:08:03.474Z,18.61
2022-09-13T14:10:39.763Z,18.68
2022-09-13T14:13:22.916Z,18.72
2022-09-13T14:16:09.873Z,18.76
2022-09-13T14:18:59.433Z,18.77
2022-09-13T14:21:28.189Z,18.65
2022-09-13T14:24:24.603Z,18.62
2022-09-13T14:26:58.579Z,18.61
2022-09-13T14:29:26.394Z,18.56
2022-09-13T14:31:55.603Z,18.55
2022-09-13T14:34:30.691Z,18.50
2022-09-13T14:37:00.842Z,18.53
2022-09-13T14:39:28.217Z,18.53
2022-09-13T14:42:15.375Z,18.53
2022-09-13T14:44:45.662Z,18.57
2022-09-13T14:47:21.078Z,18.60
2022-09-13T14:49:52.234Z,18.64
2022-09-13T14:52:29.289Z,18.69
2022-09-13T14:55:06.942Z,18.72
2022-09-13T14:57:38.649Z,18.74
2022-09-13T15:00:25.879Z,18.68
2022-09-13T15:03:05.170Z,18.57
2022-09-13T15:05:34.410Z,18.53
2022-09-13T15:08:00.904Z,18.51
2022-09-13T15:10:33.077Z,18.51
2022-09-13T15:13:05.632Z,18.48
2022-09-13T15:15:32.055Z,18.51
2022-09-13T15:18:00.879Z,18.51
2022-09-13T15:20:31.340Z,18.53
2022-09-13T15:22:58.354Z,18.52
2022-09-13T15:25:29.664Z,18.55
2022-09-13T15:27:57.528Z,18.56
2022-09-13T15:30:38.202Z,18.64
2022-09-13T15:33:10.853Z,18.68
2022-09-13T15:35:42.613Z,18.69
2022-09-13T15:38:24.218Z,18.70
2022-09-13T15:41:25.049Z,18.71
2022-09-13T15:43:51.514Z,18.72
2022-09-13T15:46:18.517Z,18.72
2022-09-13T15:48:52.570Z,18.73
2022-09-13T15:51:19.145Z,18.72
2022-09-13T15:53:46.775Z,18.70
2022-09-13T15:56:17.053Z,18.67
2022-09-13T15:58:43.590Z,18.63
2022-09-13T16:01:12.807Z,18.58
2022-09-13T16:03:39.765Z,18.52
2022-09-13T16:06:08.934Z,18.42
2022-09-13T16:08:37.138Z,18.35
2022-09-13T16:11:03.640Z,18.26
2022-09-13T16:13:30.130Z,18.15
2022-09-13T16:15:58.079Z,18.07
2022-09-13T16:18:25.093Z,18.00
2022-09-13T16:20:51.791Z,17.92
2022-09-13T16:23:18.264Z,17.83
2022-09-13T16:25:44.940Z,17.76
2022-09-13T16:28:21.362Z,17.69
2022-09-13T16:30:48.748Z,17.60
2022-09-13T16:33:15.237Z,17.50
2022-09-13T16:35:41.844Z,17.42
2022-09-13T16:38:10.296Z,17.30
2022-09-13T16:40:40.215Z,17.18
2022-09-13T16:43:07.256Z,17.07
2022-09-13T16:45:34.601Z,16.95
2022-09-13T16:48:01.172Z,16.82
2022-09-13T16:50:28.771Z,16.75
2022-09-13T16:52:57.661Z,16.66
2022-09-13T16:55:25.900Z,16.56
2022-09-13T16:57:52.618Z,16.48
2022-09-13T17:00:20.122Z,16.44
2022-09-13T17:02:47.425Z,16.40
2022-09-13T17:05:14.047Z,16.33
2022-09-13T17:07:40.624Z,16.31
2022-09-13T17:10:08.467Z,16.21
2022-09-13T17:12:35.078Z,16.14
2022-09-13T17:15:01.716Z,16.06
2022-09-13T17:17:28.318Z,15.95
2022-09-13T17:19:54.848Z,15.91
2022-09-13T17:22:21.390Z,15.84
2022-09-13T17:24:47.880Z,15.77
2022-09-13T17:27:14.352Z,15.74
2022-09-13T17:29:40.880Z,15.73
2022-09-13T17:32:07.384Z,15.70
2022-09-13T17:34:34.701Z,15.65
2022-09-13T17:37:03.669Z,15.64
2022-09-13T17:39:31.032Z,15.56
2022-09-13T17:41:58.476Z,15.48
2022-09-13T17:44:25.569Z,15.46
2022-09-13T17:46:52.152Z,15.44
2022-09-13T17:49:20.317Z,15.38
2022-09-13T17:51:46.898Z,15.39
2022-09-13T17:54:13.599Z,15.40
2022-09-13T17:56:42.788Z,15.36
2022-09-13T17:59:27.920Z,15.32
2022-09-13T18:01:56.463Z,15.30
2022-09-13T18:04:23.663Z,15.28
2022-09-13T18:06:53.740Z,15.25
2022-09-13T18:09:21.130Z,15.22
2022-09-13T18:11:47.818Z,15.22
2022-09-13T18:14:15.978Z,15.19
2022-09-13T18:16:43.924Z,15.19
2022-09-13T18:19:11.638Z,15.17
2022-09-13T18:21:38.159Z,15.13
2022-09-13T18:24:05.410Z,15.12
2022-09-13T18:26:32.695Z,15.07
2022-09-13T18:29:04.272Z,15.05
2022-09-13T18:31:32.634Z,15.01
2022-09-13T18:34:01.711Z,14.98
2022-09-13T18:36:29.796Z,14.93
2022-09-13T18:38:57.274Z,14.84
2022-09-13T18:41:27.006Z,14.82
2022-09-13T18:43:56.106Z,14.84
2022-09-13T18:46:27.053Z,14.81
2022-09-13T18:48:57.232Z,14.83
2022-09-13T18:51:32.965Z,14.83
2022-09-13T18:54:00.332Z,14.77
2022-09-13T18:56:27.792Z,14.75
2022-09-13T18:58:55.227Z,14.72
2022-09-13T19:01:28.071Z,14.71
2022-09-13T19:03:56.186Z,14.66
2022-09-13T19:06:27.682Z,14.65
2022-09-13T19:08:56.503Z,14.66
2022-09-13T19:11:45.378Z,14.61
2022-09-13T19:14:14.239Z,14.58
2022-09-13T19:16:41.038Z,14.56
2022-09-13T19:19:07.767Z,14.55
2022-09-13T19:21:34.343Z,14.53
2022-09-13T19:24:04.183Z,14.52
2022-09-13T19:26:36.120Z,14.52
2022-09-13T19:29:14.349Z,14.48
2022-09-13T19:31:44.217Z,14.45
2022-09-13T19:34:12.270Z,14.42
2022-09-13T19:36:40.237Z,14.42
2022-09-13T19:39:07.615Z,14.44
2022-09-13T19:41:35.463Z,14.44
2022-09-13T19:44:02.943Z,14.45
2022-09-13T19:46:32.542Z,14.44
2022-09-13T19:49:01.046Z,14.44
2022-09-13T19:51:32.794Z,14.45
2022-09-13T19:54:00.544Z,14.42
2022-09-13T19:56:34.015Z,14.41
2022-09-13T19:59:02.023Z,14.37
2022-09-13T20:01:31.713Z,14.40
2022-09-13T20:04:03.189Z,14.42
2022-09-13T20:06:35.235Z,14.38
2022-09-13T20:09:04.173Z,14.40
2022-09-13T20:11:50.056Z,14.40
2022-09-13T20:14:19.390Z,14.39
2022-09-13T20:16:46.742Z,14.40
2022-09-13T20:19:39.794Z,14.40
2022-09-13T20:22:05.847Z,14.39
2022-09-13T20:24:32.422Z,14.35
2022-09-13T20:26:58.913Z,14.36
2022-09-13T20:29:25.640Z,14.36
2022-09-13T20:31:52.155Z,14.28
2022-09-13T20:34:18.697Z,14.27
2022-09-13T20:36:47.108Z,14.24
2022-09-13T20:39:15.145Z,14.25
2022-09-13T20:41:43.190Z,14.26
2022-09-13T20:44:09.796Z,14.28
2022-09-13T20:46:37.643Z,14.25
2022-09-13T20:49:05.412Z,14.27
2022-09-13T20:51:34.702Z,14.25
2022-09-13T20:54:01.755Z,14.26
2022-09-13T20:56:30.402Z,14.26
2022-09-13T20:59:00.157Z,14.26
2022-09-13T21:01:29.673Z,14.25
2022-09-13T21:03:57.015Z,14.24
2022-09-13T21:06:27.575Z,14.25
2022-09-13T21:08:56.380Z,14.24
2022-09-13T21:11:27.056Z,14.23
2022-09-13T21:13:55.844Z,14.21
2022-09-13T21:16:26.140Z,14.21
2022-09-13T21:18:53.905Z,14.21
2022-09-13T21:21:25.643Z,14.21
2022-09-13T21:23:52.936Z,14.21
2022-09-13T21:26:21.785Z,14.19
2022-09-13T21:28:49.056Z,14.19
2022-09-13T21:31:34.731Z,14.17
2022-09-13T21:34:04.306Z,14.18
2022-09-13T21:36:34.747Z,14.16
2022-09-13T21:39:02.420Z,14.16
2022-09-13T21:41:29.988Z,14.14
2022-09-13T21:43:56.886Z,14.15
2022-09-13T21:46:28.604Z,14.14
2022-09-13T21:49:01.310Z,14.14
2022-09-13T21:51:36.991Z,14.14
2022-09-13T21:54:07.133Z,14.14
2022-09-13T21:56:38.991Z,14.13
2022-09-13T21:59:13.201Z,14.12
2022-09-13T22:01:41.653Z,14.12
2022-09-13T22:04:13.124Z,14.10
2022-09-13T22:06:39.600Z,14.07
2022-09-13T22:09:08.156Z,14.10
2022-09-13T22:11:38.707Z,14.09
2022-09-13T22:14:06.716Z,14.06
2022-09-13T22:16:36.280Z,14.02
2022-09-13T22:19:09.527Z,13.99
2022-09-13T22:21:38.701Z,13.97
2022-09-13T22:24:07.985Z,13.95
2022-09-13T22:26:37.834Z,13.93
2022-09-13T22:29:05.243Z,13.92
2022-09-13T22:31:37.547Z,13.95
2022-09-13T22:34:05.077Z,13.96
2022-09-13T22:36:31.613Z,13.94
2022-09-13T22:38:58.753Z,13.92
2022-09-13T22:41:27.568Z,13.90
2022-09-13T22:43:54.640Z,13.90
2022-09-13T22:46:29.941Z,13.89
2022-09-13T22:48:57.047Z,13.88
2022-09-13T22:51:24.225Z,13.88
2022-09-13T22:53:52.376Z,13.89
2022-09-13T22:56:25.650Z,13.90
2022-09-13T22:59:08.038Z,13.88
2022-09-13T23:01:35.605Z,13.91
2022-09-13T23:04:03.051Z,13.88
2022-09-13T23:06:31.041Z,13.88
2022-09-13T23:09:00.512Z,13.87
2022-09-13T23:11:28.481Z,13.85
2022-09-13T23:13:58.323Z,13.86
2022-09-13T23:16:30.159Z,13.83
2022-09-13T23:18:57.474Z,13.81
2022-09-13T23:21:27.140Z,13.79
2022-09-13T23:23:54.281Z,13.80
2022-09-13T23:26:22.815Z,13.79
2022-09-13T23:28:56.565Z,13.77
2022-09-13T23:31:27.242Z,13.76
2022-09-13T23:33:56.952Z,13.75
2022-09-13T23:36:26.896Z,13.70
2022-09-13T23:38:55.381Z,13.62
2022-09-13T23:41:22.617Z,13.56
2022-09-13T23:43:49.571Z,13.57
2022-09-13T23:46:16.180Z,13.54
2022-09-13T23:48:45.540Z,13.55
2022-09-13T23:51:16.780Z,13.53
2022-09-13T23:53:43.912Z,13.46
2022-09-13T23:56:11.745Z,13.45
2022-09-13T23:58:38.852Z,13.43
